createdAt,value
2022-09-17T00:03:35.736Z,98
2022-09-17T00:08:35.908Z,98
2022-09-17T00:13:36.031Z,98
2022-09-17T00:18:36.280Z,98
2022-09-17T00:23:36.439Z,98
2022-09-17T00:28:36.610Z,98
2022-09-17T00:33:35.560Z,99
2022-09-17T00:38:35.813Z,99
2022-09-17T00:43:36.054Z,99
2022-09-17T00:48:36.103Z,99
2022-09-17T00:53:36.182Z,99
2022-09-17T00:58:41.022Z,99
2022-09-17T01:03:36.042Z,99
2022-09-17T01:08:36.278Z,99
2022-09-17T01:13:36.398Z,99
2022-09-17T01:18:36.484Z,99
2022-09-17T01:23:36.639Z,99
2022-09-17T01:28:35.798Z,99
2022-09-17T01:33:36.006Z,99
2022-09-17T01:38:36.339Z,99
2022-09-17T01:43:36.390Z,98
2022-09-17T01:48:36.607Z,98
2022-09-17T01:53:36.118Z,98
2022-09-17T01:58:36.514Z,98
2022-09-17T02:03:35.986Z,98
2022-09-17T02:08:36.193Z,98
2022-09-17T02:13:36.302Z,99
2022-09-17T02:18:36.558Z,99
2022-09-17T02:23:35.928Z,99
2022-09-17T02:28:36.140Z,99
2022-09-17T02:33:36.438Z,99
2022-09-17T02:38:35.826Z,99
2022-09-17T02:43:36.097Z,98
2022-09-17T02:48:36.648Z,98
2022-09-17T02:53:36.227Z,98
2022-09-17T02:58:36.433Z,98
2022-09-17T03:03:36.966Z,98
2022-09-17T03:08:36.238Z,98
2022-09-17T03:13:35.901Z,99
2022-09-17T03:18:36.268Z,99
2022-09-17T03:23:36.522Z,98
2022-09-17T03:28:36.086Z,98
2022-09-17T03:33:36.407Z,98
2022-09-17T03:38:36.151Z,98
2022-09-17T03:43:35.848Z,98
2022-09-17T03:48:36.001Z,98
2022-09-17T03:53:36.067Z,99
2022-09-17T03:58:36.550Z,99
2022-09-17T04:03:35.849Z,99
2022-09-17T04:08:36.181Z,99
2022-09-17T04:13:36.883Z,99
2022-09-17T04:18:36.260Z,99
2022-09-17T04:23:36.533Z,99
2022-09-17T04:28:35.859Z,99
2022-09-17T04:33:36.333Z,99
2022-09-17T04:38:36.540Z,99
2022-09-17T04:43:35.820Z,99
2022-09-17T04:48:36.069Z,99
2022-09-17T04:53:36.355Z,99
2022-09-17T04:58:36.672Z,99
2022-09-17T05:03:35.748Z,99
2022-09-17T05:08:36.023Z,99
2022-09-17T05:13:36.426Z,99
2022-09-17T05:18:36.101Z,99
2022-09-17T05:23:36.871Z,99
2022-09-17T05:28:36.079Z,99
2022-09-17T05:33:36.491Z,99
2022-09-17T05:38:36.912Z,99
2022-09-17T05:43:36.102Z,99
2022-09-17T05:48:36.294Z,99
2022-09-17T05:53:36.574Z,98
2022-09-17T05:58:36.677Z,98
2022-09-17T06:03:35.790Z,99
2022-09-17T06:08:36.202Z,99
2022-09-17T06:13:36.423Z,99
2022-09-17T06:18:36.627Z,99
2022-09-17T06:23:35.883Z,99
2022-09-17T06:28:40.597Z,99
2022-09-17T06:33:36.099Z,99
2022-09-17T06:38:36.478Z,99
2022-09-17T06:43:36.784Z,99
2022-09-17T06:48:36.074Z,99
2022-09-17T06:53:36.479Z,99
2022-09-17T06:58:36.902Z,99
2022-09-17T07:03:36.213Z,99
2022-09-17T07:08:35.944Z,99
2022-09-17T07:13:36.303Z,99
2022-09-17T07:18:36.786Z,99
2022-09-17T07:23:36.682Z,98
2022-09-17T07:28:36.789Z,98
2022-09-17T07:33:36.105Z,98
2022-09-17T07:38:36.393Z,98
2022-09-17T07:43:36.741Z,98
2022-09-17T07:48:36.092Z,98
2022-09-17T07:53:36.356Z,98
2022-09-17T07:58:36.533Z,98
2022-09-17T08:03:36.821Z,98
2022-09-17T08:08:36.084Z,98
2022-09-17T08:13:36.372Z,98
2022-09-17T08:18:36.676Z,98
2022-09-17T08:23:36.047Z,98
2022-09-17T08:28:36.176Z,98
2022-09-17T08:33:36.400Z,97
2022-09-17T08:38:38.248Z,97
2022-09-17T08:43:36.809Z,95
2022-09-17T08:48:36.199Z,95
2022-09-17T08:53:36.869Z,93
2022-09-17T08:58:36.160Z,93
2022-09-17T09:03:36.619Z,90
2022-09-17T09:08:36.916Z,90
2022-09-17T09:13:36.466Z,85
2022-09-17T09:18:36.623Z,85
2022-09-17T09:23:36.085Z,83
2022-09-17T09:28:36.576Z,83
2022-09-17T09:33:36.808Z,81
2022-09-17T09:38:36.155Z,81
2022-09-17T09:43:59.539Z,82
2022-09-17T09:48:36.400Z,82
2022-09-17T09:53:36.876Z,83
2022-09-17T09:58:36.162Z,83
2022-09-17T10:03:36.502Z,84
2022-09-17T10:08:36.801Z,84
2022-09-17T10:13:36.301Z,84
2022-09-17T10:18:36.559Z,84
2022-09-17T10:23:36.600Z,83
2022-09-17T10:28:36.747Z,83
2022-09-17T10:33:36.309Z,79
2022-09-17T10:38:36.609Z,79
2022-09-17T10:43:36.958Z,77
2022-09-17T10:48:36.293Z,77
2022-09-17T10:53:36.674Z,75
2022-09-17T10:58:41.695Z,75
2022-09-17T11:03:36.857Z,76
2022-09-17T11:08:36.322Z,76
2022-09-17T11:13:36.627Z,76
2022-09-17T11:18:36.911Z,76
2022-09-17T11:23:36.108Z,77
2022-09-17T11:28:36.558Z,77
2022-09-17T11:33:36.752Z,78
2022-09-17T11:38:37.008Z,78
2022-09-17T11:43:36.504Z,80
2022-09-17T11:48:36.776Z,80
2022-09-17T11:53:37.023Z,81
2022-09-17T11:58:36.339Z,81
2022-09-17T12:03:36.449Z,80
2022-09-17T12:08:36.674Z,80
2022-09-17T12:13:36.932Z,80
2022-09-17T12:18:36.970Z,80
2022-09-17T12:23:36.099Z,80
2022-09-17T12:28:36.984Z,80
2022-09-17T12:33:36.177Z,79
2022-09-17T12:38:36.408Z,79
2022-09-17T12:43:36.576Z,79
2022-09-17T12:48:36.921Z,79
2022-09-17T12:53:37.008Z,79
2022-09-17T12:58:36.401Z,79
2022-09-17T13:03:36.588Z,79
2022-09-17T13:08:36.787Z,79
2022-09-17T13:13:36.221Z,78
2022-09-17T13:18:36.362Z,78
2022-09-17T13:23:36.540Z,78
2022-09-17T13:28:36.759Z,78
2022-09-17T13:33:36.924Z,77
2022-09-17T13:38:36.276Z,77
2022-09-17T13:43:36.500Z,76
2022-09-17T13:48:36.643Z,76
2022-09-17T13:53:36.880Z,75
2022-09-17T13:58:37.034Z,75
2022-09-17T14:03:36.140Z,74
2022-09-17T14:08:36.281Z,74
2022-09-17T14:13:36.823Z,75
2022-09-17T14:18:36.174Z,75
2022-09-17T14:23:36.273Z,75
2022-09-17T14:28:36.647Z,75
2022-09-17T14:33:36.759Z,73
2022-09-17T14:38:37.092Z,73
2022-09-17T14:43:36.340Z,77
2022-09-17T14:48:36.682Z,77
2022-09-17T14:53:36.723Z,80
2022-09-17T14:58:36.173Z,80
2022-09-17T15:03:36.750Z,83
2022-09-17T15:08:36.718Z,83
2022-09-17T15:13:36.304Z,85
2022-09-17T15:18:37.036Z,85
2022-09-17T15:23:36.353Z,87
2022-09-17T15:28:36.298Z,87
2022-09-17T15:33:36.181Z,89
2022-09-17T15:38:36.883Z,89
2022-09-17T15:43:36.128Z,90
2022-09-17T15:48:36.766Z,90
2022-09-17T15:53:37.400Z,91
2022-09-17T15:58:36.591Z,91
2022-09-17T16:03:36.373Z,92
2022-09-17T16:08:37.175Z,92
2022-09-17T16:13:36.398Z,92
2022-09-17T16:18:36.688Z,92
2022-09-17T16:23:37.080Z,92
2022-09-17T16:28:36.324Z,92
2022-09-17T16:33:36.662Z,93
2022-09-17T16:38:37.042Z,93
2022-09-17T16:43:37.328Z,93
2022-09-17T16:48:36.430Z,93
2022-09-17T16:53:36.864Z,93
2022-09-17T16:58:37.207Z,93
2022-09-17T17:03:36.358Z,93
2022-09-17T17:08:36.531Z,93
2022-09-17T17:13:36.707Z,93
2022-09-17T17:18:36.891Z,93
2022-09-17T17:23:37.167Z,93
2022-09-17T17:28:36.352Z,93
2022-09-17T17:33:36.636Z,93
2022-09-17T17:38:36.773Z,93
2022-09-17T17:43:36.985Z,93
2022-09-17T17:48:36.639Z,93
2022-09-17T17:53:36.759Z,93
2022-09-17T17:58:36.953Z,93
2022-09-17T18:03:37.117Z,93
2022-09-17T18:08:36.365Z,93
2022-09-17T18:13:36.819Z,93
2022-09-17T18:18:39.738Z,93
2022-09-17T18:23:36.491Z,93
2022-09-17T18:28:36.559Z,93
2022-09-17T18:33:36.701Z,93
2022-09-17T18:38:37.035Z,93
2022-09-17T18:43:36.215Z,93
2022-09-17T18:48:36.820Z,93
2022-09-17T18:53:37.044Z,93
2022-09-17T18:58:36.372Z,93
2022-09-17T19:03:36.683Z,94
2022-09-17T19:08:36.903Z,94
2022-09-17T19:13:36.905Z,94
2022-09-17T19:18:36.968Z,94
2022-09-17T19:23:36.354Z,94
2022-09-17T19:28:36.507Z,94
2022-09-17T19:33:36.676Z,94
2022-09-17T19:38:36.818Z,94
2022-09-17T19:43:36.969Z,95
2022-09-17T19:48:37.107Z,95
2022-09-17T19:53:36.565Z,95
2022-09-17T19:58:36.868Z,95
2022-09-17T20:03:36.972Z,95
2022-09-17T20:08:42.587Z,95
2022-09-17T20:13:37.330Z,96
2022-09-17T20:18:36.514Z,96
2022-09-17T20:23:36.736Z,96
2022-09-17T20:28:36.988Z,96
2022-09-17T20:33:37.027Z,96
2022-09-17T20:39:10.744Z,96
2022-09-17T20:43:36.434Z,96
2022-09-17T20:48:36.535Z,96
2022-09-17T20:53:36.681Z,96
2022-09-17T20:58:36.782Z,96
2022-09-17T21:03:37.026Z,96
2022-09-17T21:08:36.578Z,96
2022-09-17T21:13:37.334Z,96
2022-09-17T21:18:39.563Z,96
2022-09-17T21:23:37.095Z,96
2022-09-17T21:28:37.231Z,96
2022-09-17T21:33:36.767Z,96
2022-09-17T21:38:37.092Z,96
2022-09-17T21:43:36.720Z,96
2022-09-17T21:48:37.166Z,96
2022-09-17T21:53:36.376Z,96
2022-09-17T21:58:36.880Z,96
2022-09-17T22:03:37.283Z,96
2022-09-17T22:08:36.506Z,96
2022-09-17T22:13:36.862Z,96
2022-09-17T22:18:37.354Z,96
2022-09-17T22:23:36.702Z,97
2022-09-17T22:28:36.728Z,97
2022-09-17T22:33:37.107Z,97
2022-09-17T22:38:37.259Z,97
2022-09-17T22:43:36.440Z,96
2022-09-17T22:48:36.729Z,96
2022-09-17T22:53:37.117Z,96
2022-09-17T22:58:36.588Z,96
2022-09-17T23:03:36.833Z,97
2022-09-17T23:08:37.106Z,97
2022-09-17T23:13:36.394Z,96
2022-09-17T23:18:36.469Z,96
2022-09-17T23:23:36.513Z,97
2022-09-17T23:28:36.622Z,97
2022-09-17T23:33:36.682Z,97
2022-09-17T23:38:36.813Z,97
2022-09-17T23:43:36.902Z,97
2022-09-17T23:48:36.885Z,97
2022-09-17T23:53:36.527Z,97
2022-09-17T23:58:37.069Z,97
